sensor_id;sensor_type;location;lat;lon;timestamp;P1;durP1;ratioP1;P2;durP2;ratioP2
53521;SDS011;39398;48.382;9.802;2022-07-29T00:00:04;12.38;;;10.48;;
53521;SDS011;39398;48.382;9.802;2022-07-29T00:01:06;14.70;;;10.45;;
53521;SDS011;39398;48.382;9.802;2022-07-29T00:02:19;13.05;;;11.02;;
53521;SDS011;39398;48.382;9.802;2022-07-29T00:03:21;11.15;;;10.15;;
53521;SDS011;39398;48.382;9.802;2022-07-29T00:04:22;12.40;;;10.75;;
53521;SDS011;39398;48.382;9.802;2022-07-29T00:05:24;12.77;;;10.88;;
53521;SDS011;39398;48.382;9.802;2022-07-29T00:06:26;14.07;;;11.07;;
53521;SDS011;39398;48.382;9.802;2022-07-29T00:07:27;15.65;;;11.48;;
53521;SDS011;39398;48.382;9.802;2022-07-29T00:08:29;15.30;;;11.95;;
53521;SDS011;39398;48.382;9.802;2022-07-29T00:09:32;15.00;;;11.55;;
53521;SDS011;39398;48.382;9.802;2022-07-29T00:10:50;16.00;;;12.63;;
53521;SDS011;39398;48.382;9.802;2022-07-29T00:11:52;15.60;;;12.98;;
53521;SDS011;39398;48.382;9.802;2022-07-29T00:12:54;15.85;;;13.20;;
53521;SDS011;39398;48.382;9.802;2022-07-29T00:13:56;15.65;;;12.52;;
53521;SDS011;39398;48.382;9.802;2022-07-29T00:14:57;15.45;;;12.63;;
53521;SDS011;39398;48.382;9.802;2022-07-29T00:15:59;13.75;;;11.75;;
53521;SDS011;39398;48.382;9.802;2022-07-29T00:17:05;15.82;;;12.10;;
53521;SDS011;39398;48.382;9.802;2022-07-29T00:18:06;14.38;;;11.20;;
53521;SDS011;39398;48.382;9.802;2022-07-29T00:19:08;15.35;;;11.15;;
53521;SDS011;39398;48.382;9.802;2022-07-29T00:20:11;14.38;;;11.98;;
53521;SDS011;39398;48.382;9.802;2022-07-29T00:21:12;14.07;;;11.93;;
53521;SDS011;39398;48.382;9.802;2022-07-29T00:22:14;14.48;;;12.02;;
53521;SDS011;39398;48.382;9.802;2022-07-29T00:23:16;15.30;;;11.93;;
53521;SDS011;39398;48.382;9.802;2022-07-29T00:24:17;16.58;;;12.30;;
53521;SDS011;39398;48.382;9.802;2022-07-29T00:25:20;15.05;;;12.35;;
53521;SDS011;39398;48.382;9.802;2022-07-29T00:26:22;18.60;;;12.95;;
53521;SDS011;39398;48.382;9.802;2022-07-29T00:27:24;14.57;;;12.70;;
53521;SDS011;39398;48.382;9.802;2022-07-29T00:28:25;14.85;;;12.25;;
53521;SDS011;39398;48.382;9.802;2022-07-29T00:29:27;16.27;;;14.13;;
53521;SDS011;39398;48.382;9.802;2022-07-29T00:30:34;17.38;;;14.85;;
53521;SDS011;39398;48.382;9.802;2022-07-29T00:31:36;21.40;;;16.60;;
53521;SDS011;39398;48.382;9.802;2022-07-29T00:32:37;16.63;;;14.68;;
53521;SDS011;39398;48.382;9.802;2022-07-29T00:33:39;18.67;;;16.58;;
53521;SDS011;39398;48.382;9.802;2022-07-29T00:34:40;18.58;;;14.27;;
53521;SDS011;39398;48.382;9.802;2022-07-29T00:35:42;17.45;;;14.82;;
53521;SDS011;39398;48.382;9.802;2022-07-29T00:36:43;18.48;;;14.32;;
53521;SDS011;39398;48.382;9.802;2022-07-29T00:37:45;19.25;;;14.07;;
53521;SDS011;39398;48.382;9.802;2022-07-29T00:38:46;17.10;;;14.90;;
53521;SDS011;39398;48.382;9.802;2022-07-29T00:39:48;19.00;;;14.38;;
53521;SDS011;39398;48.382;9.802;2022-07-29T00:40:51;18.30;;;14.63;;
53521;SDS011;39398;48.382;9.802;2022-07-29T00:41:52;16.55;;;14.70;;
53521;SDS011;39398;48.382;9.802;2022-07-29T00:42:54;18.08;;;14.65;;
53521;SDS011;39398;48.382;9.802;2022-07-29T00:43:55;17.48;;;14.25;;
53521;SDS011;39398;48.382;9.802;2022-07-29T00:44:57;18.80;;;14.10;;
53521;SDS011;39398;48.382;9.802;2022-07-29T00:45:58;20.10;;;15.32;;
53521;SDS011;39398;48.382;9.802;2022-07-29T00:47:00;17.13;;;14.52;;
53521;SDS011;39398;48.382;9.802;2022-07-29T00:48:01;20.80;;;14.57;;
53521;SDS011;39398;48.382;9.802;2022-07-29T00:49:03;16.92;;;14.02;;
53521;SDS011;39398;48.382;9.802;2022-07-29T00:50:05;16.45;;;14.43;;
53521;SDS011;39398;48.382;9.802;2022-07-29T00:51:08;16.75;;;14.98;;
53521;SDS011;39398;48.382;9.802;2022-07-29T00:52:10;17.15;;;14.13;;
53521;SDS011;39398;48.382;9.802;2022-07-29T00:53:12;18.95;;;14.35;;
53521;SDS011;39398;48.382;9.802;2022-07-29T00:54:13;15.45;;;12.88;;
53521;SDS011;39398;48.382;9.802;2022-07-29T00:55:16;15.60;;;14.05;;
53521;SDS011;39398;48.382;9.802;2022-07-29T00:56:19;18.83;;;13.93;;
53521;SDS011;39398;48.382;9.802;2022-07-29T00:57:21;18.88;;;13.77;;
53521;SDS011;39398;48.382;9.802;2022-07-29T00:58:23;17.25;;;13.80;;
53521;SDS011;39398;48.382;9.802;2022-07-29T00:59:25;19.17;;;14.20;;
53521;SDS011;39398;48.382;9.802;2022-07-29T01:00:35;16.67;;;14.73;;
53521;SDS011;39398;48.382;9.802;2022-07-29T01:01:37;15.95;;;14.05;;
53521;SDS011;39398;48.382;9.802;2022-07-29T01:02:38;19.67;;;14.02;;
53521;SDS011;39398;48.382;9.802;2022-07-29T01:03:40;17.45;;;15.05;;
53521;SDS011;39398;48.382;9.802;2022-07-29T01:04:41;19.45;;;15.40;;
53521;SDS011;39398;48.382;9.802;2022-07-29T01:05:43;18.48;;;15.25;;
53521;SDS011;39398;48.382;9.802;2022-07-29T01:06:51;16.92;;;14.70;;
53521;SDS011;39398;48.382;9.802;2022-07-29T01:07:55;19.92;;;14.88;;
53521;SDS011;39398;48.382;9.802;2022-07-29T01:08:58;20.83;;;15.98;;
53521;SDS011;39398;48.382;9.802;2022-07-29T01:10:01;19.90;;;16.80;;
53521;SDS011;39398;48.382;9.802;2022-07-29T01:11:03;17.10;;;14.82;;
53521;SDS011;39398;48.382;9.802;2022-07-29T01:12:06;21.02;;;15.75;;
53521;SDS011;39398;48.382;9.802;2022-07-29T01:13:08;21.25;;;14.98;;
53521;SDS011;39398;48.382;9.802;2022-07-29T01:14:11;19.33;;;15.63;;
53521;SDS011;39398;48.382;9.802;2022-07-29T01:15:13;23.13;;;16.05;;
53521;SDS011;39398;48.382;9.802;2022-07-29T01:16:17;19.83;;;15.70;;
53521;SDS011;39398;48.382;9.802;2022-07-29T01:17:27;19.92;;;16.08;;
53521;SDS011;39398;48.382;9.802;2022-07-29T01:18:33;19.00;;;16.48;;
53521;SDS011;39398;48.382;9.802;2022-07-29T01:19:44;27.25;;;16.52;;
53521;SDS011;39398;48.382;9.802;2022-07-29T01:20:57;21.20;;;16.05;;
53521;SDS011;39398;48.382;9.802;2022-07-29T01:22:22;19.90;;;16.40;;
53521;SDS011;39398;48.382;9.802;2022-07-29T01:23:48;25.27;;;16.83;;
53521;SDS011;39398;48.382;9.802;2022-07-29T01:26:13;20.50;;;14.63;;
53521;SDS011;39398;48.382;9.802;2022-07-29T01:27:37;17.92;;;15.43;;
53521;SDS011;39398;48.382;9.802;2022-07-29T01:28:53;19.30;;;14.77;;
53521;SDS011;39398;48.382;9.802;2022-07-29T01:30:07;17.48;;;14.70;;
53521;SDS011;39398;48.382;9.802;2022-07-29T01:31:11;20.60;;;15.02;;
53521;SDS011;39398;48.382;9.802;2022-07-29T01:32:26;18.45;;;15.23;;
53521;SDS011;39398;48.382;9.802;2022-07-29T01:33:29;19.08;;;14.85;;
53521;SDS011;39398;48.382;9.802;2022-07-29T01:34:35;17.80;;;15.13;;
53521;SDS011;39398;48.382;9.802;2022-07-29T01:35:42;18.20;;;15.18;;
53521;SDS011;39398;48.382;9.802;2022-07-29T01:36:47;16.92;;;14.80;;
53521;SDS011;39398;48.382;9.802;2022-07-29T01:37:52;16.98;;;15.18;;
53521;SDS011;39398;48.382;9.802;2022-07-29T01:38:59;18.63;;;14.57;;
53521;SDS011;39398;48.382;9.802;2022-07-29T01:40:07;16.00;;;13.90;;
53521;SDS011;39398;48.382;9.802;2022-07-29T01:41:15;18.10;;;14.57;;
53521;SDS011;39398;48.382;9.802;2022-07-29T01:42:20;21.20;;;14.70;;
53521;SDS011;39398;48.382;9.802;2022-07-29T01:43:31;17.80;;;13.98;;
53521;SDS011;39398;48.382;9.802;2022-07-29T01:44:41;19.17;;;15.35;;
53521;SDS011;39398;48.382;9.802;2022-07-29T01:45:50;17.48;;;14.75;;
53521;SDS011;39398;48.382;9.802;2022-07-29T01:46:58;18.08;;;15.38;;
53521;SDS011;39398;48.382;9.802;2022-07-29T01:48:03;19.38;;;15.60;;
53521;SDS011;39398;48.382;9.802;2022-07-29T01:49:08;16.58;;;14.23;;
53521;SDS011;39398;48.382;9.802;2022-07-29T01:50:12;17.17;;;13.32;;
53521;SDS011;39398;48.382;9.802;2022-07-29T01:51:18;15.82;;;13.18;;
53521;SDS011;39398;48.382;9.802;2022-07-29T01:52:23;17.50;;;14.57;;
53521;SDS011;39398;48.382;9.802;2022-07-29T01:53:29;16.05;;;14.40;;
53521;SDS011;39398;48.382;9.802;2022-07-29T01:54:39;16.48;;;13.73;;
53521;SDS011;39398;48.382;9.802;2022-07-29T01:55:44;15.98;;;14.35;;
53521;SDS011;39398;48.382;9.802;2022-07-29T01:56:47;16.58;;;14.35;;
53521;SDS011;39398;48.382;9.802;2022-07-29T01:57:51;18.70;;;14.50;;
53521;SDS011;39398;48.382;9.802;2022-07-29T01:58:52;16.52;;;13.73;;
53521;SDS011;39398;48.382;9.802;2022-07-29T01:59:57;19.42;;;15.50;;
53521;SDS011;39398;48.382;9.802;2022-07-29T02:01:00;20.10;;;14.73;;
53521;SDS011;39398;48.382;9.802;2022-07-29T02:02:03;19.75;;;15.38;;
53521;SDS011;39398;48.382;9.802;2022-07-29T02:03:09;23.90;;;17.92;;
53521;SDS011;39398;48.382;9.802;2022-07-29T02:04:13;54.95;;;16.88;;
53521;SDS011;39398;48.382;9.802;2022-07-29T02:05:30;98.82;;;18.10;;
53521;SDS011;39398;48.382;9.802;2022-07-29T02:06:33;109.05;;;18.63;;
53521;SDS011;39398;48.382;9.802;2022-07-29T02:07:38;102.68;;;18.08;;
53521;SDS011;39398;48.382;9.802;2022-07-29T02:08:42;130.10;;;17.70;;
53521;SDS011;39398;48.382;9.802;2022-07-29T02:09:47;268.05;;;24.48;;
53521;SDS011;39398;48.382;9.802;2022-07-29T02:10:50;241.50;;;22.50;;
53521;SDS011;39398;48.382;9.802;2022-07-29T02:11:53;171.20;;;22.13;;
53521;SDS011;39398;48.382;9.802;2022-07-29T02:12:57;240.20;;;22.50;;
53521;SDS011;39398;48.382;9.802;2022-07-29T02:14:00;114.40;;;19.52;;
53521;SDS011;39398;48.382;9.802;2022-07-29T02:15:05;157.18;;;21.60;;
53521;SDS011;39398;48.382;9.802;2022-07-29T02:16:10;136.00;;;19.48;;
53521;SDS011;39398;48.382;9.802;2022-07-29T02:17:13;173.25;;;22.15;;
53521;SDS011;39398;48.382;9.802;2022-07-29T02:18:22;214.82;;;21.92;;
53521;SDS011;39398;48.382;9.802;2022-07-29T02:19:26;154.10;;;20.38;;
53521;SDS011;39398;48.382;9.802;2022-07-29T02:20:29;224.75;;;22.70;;
53521;SDS011;39398;48.382;9.802;2022-07-29T02:21:32;441.38;;;30.95;;
53521;SDS011;39398;48.382;9.802;2022-07-29T02:22:37;324.63;;;28.05;;
53521;SDS011;39398;48.382;9.802;2022-07-29T02:23:40;399.77;;;36.53;;
53521;SDS011;39398;48.382;9.802;2022-07-29T02:24:51;355.92;;;30.25;;
53521;SDS011;39398;48.382;9.802;2022-07-29T02:25:54;206.90;;;23.20;;
53521;SDS011;39398;48.382;9.802;2022-07-29T02:26:57;98.70;;;18.13;;
53521;SDS011;39398;48.382;9.802;2022-07-29T02:28:01;151.88;;;20.10;;
53521;SDS011;39398;48.382;9.802;2022-07-29T02:29:04;144.38;;;20.77;;
53521;SDS011;39398;48.382;9.802;2022-07-29T02:30:11;111.18;;;21.50;;
53521;SDS011;39398;48.382;9.802;2022-07-29T02:31:13;55.38;;;18.10;;
53521;SDS011;39398;48.382;9.802;2022-07-29T02:32:17;77.68;;;19.70;;
53521;SDS011;39398;48.382;9.802;2022-07-29T02:33:22;79.95;;;20.45;;
53521;SDS011;39398;48.382;9.802;2022-07-29T02:34:25;19.00;;;15.82;;
53521;SDS011;39398;48.382;9.802;2022-07-29T02:35:28;22.15;;;17.30;;
53521;SDS011;39398;48.382;9.802;2022-07-29T02:36:35;19.75;;;16.20;;
53521;SDS011;39398;48.382;9.802;2022-07-29T02:37:37;18.63;;;16.17;;
53521;SDS011;39398;48.382;9.802;2022-07-29T02:38:41;17.90;;;15.00;;
53521;SDS011;39398;48.382;9.802;2022-07-29T02:39:45;17.67;;;14.10;;
53521;SDS011;39398;48.382;9.802;2022-07-29T02:40:48;18.15;;;14.05;;
53521;SDS011;39398;48.382;9.802;2022-07-29T02:41:52;17.35;;;14.20;;
53521;SDS011;39398;48.382;9.802;2022-07-29T02:42:59;23.27;;;15.35;;
53521;SDS011;39398;48.382;9.802;2022-07-29T02:44:03;17.98;;;13.73;;
53521;SDS011;39398;48.382;9.802;2022-07-29T02:45:11;14.45;;;12.95;;
53521;SDS011;39398;48.382;9.802;2022-07-29T02:46:14;18.60;;;13.10;;
53521;SDS011;39398;48.382;9.802;2022-07-29T02:47:30;17.02;;;12.85;;
53521;SDS011;39398;48.382;9.802;2022-07-29T02:48:43;16.27;;;12.85;;
53521;SDS011;39398;48.382;9.802;2022-07-29T02:49:53;17.65;;;13.38;;
53521;SDS011;39398;48.382;9.802;2022-07-29T02:51:01;16.10;;;14.18;;
53521;SDS011;39398;48.382;9.802;2022-07-29T02:52:08;18.50;;;13.75;;
53521;SDS011;39398;48.382;9.802;2022-07-29T02:53:17;14.27;;;11.93;;
53521;SDS011;39398;48.382;9.802;2022-07-29T02:54:23;19.70;;;14.10;;
53521;SDS011;39398;48.382;9.802;2022-07-29T02:55:37;16.13;;;13.80;;
53521;SDS011;39398;48.382;9.802;2022-07-29T02:56:41;16.67;;;12.10;;
53521;SDS011;39398;48.382;9.802;2022-07-29T02:57:46;15.85;;;11.63;;
53521;SDS011;39398;48.382;9.802;2022-07-29T02:58:56;16.67;;;13.75;;
53521;SDS011;39398;48.382;9.802;2022-07-29T03:00:01;21.35;;;17.52;;
53521;SDS011;39398;48.382;9.802;2022-07-29T03:01:10;17.20;;;15.07;;
53521;SDS011;39398;48.382;9.802;2022-07-29T03:02:21;13.63;;;12.15;;
53521;SDS011;39398;48.382;9.802;2022-07-29T03:03:23;16.52;;;13.27;;
53521;SDS011;39398;48.382;9.802;2022-07-29T03:04:29;15.52;;;12.15;;
53521;SDS011;39398;48.382;9.802;2022-07-29T03:05:33;15.88;;;12.30;;
53521;SDS011;39398;48.382;9.802;2022-07-29T03:06:36;13.00;;;9.98;;
53521;SDS011;39398;48.382;9.802;2022-07-29T03:07:39;12.85;;;10.75;;
53521;SDS011;39398;48.382;9.802;2022-07-29T03:08:44;13.90;;;12.35;;
53521;SDS011;39398;48.382;9.802;2022-07-29T03:09:47;15.77;;;13.27;;
53521;SDS011;39398;48.382;9.802;2022-07-29T03:10:49;14.20;;;12.50;;
53521;SDS011;39398;48.382;9.802;2022-07-29T03:11:53;15.10;;;12.88;;
53521;SDS011;39398;48.382;9.802;2022-07-29T03:12:55;12.65;;;11.35;;
53521;SDS011;39398;48.382;9.802;2022-07-29T03:13:59;12.50;;;11.20;;
53521;SDS011;39398;48.382;9.802;2022-07-29T03:15:02;12.25;;;9.85;;
53521;SDS011;39398;48.382;9.802;2022-07-29T03:16:04;12.77;;;10.27;;
53521;SDS011;39398;48.382;9.802;2022-07-29T03:17:08;10.18;;;9.00;;
53521;SDS011;39398;48.382;9.802;2022-07-29T03:18:10;11.25;;;8.18;;
53521;SDS011;39398;48.382;9.802;2022-07-29T03:19:13;9.48;;;7.68;;
53521;SDS011;39398;48.382;9.802;2022-07-29T03:20:15;10.75;;;7.45;;
53521;SDS011;39398;48.382;9.802;2022-07-29T03:21:19;8.52;;;7.22;;
53521;SDS011;39398;48.382;9.802;2022-07-29T03:22:20;11.80;;;8.07;;
53521;SDS011;39398;48.382;9.802;2022-07-29T03:23:22;11.30;;;8.02;;
53521;SDS011;39398;48.382;9.802;2022-07-29T03:24:25;7.95;;;7.25;;
53521;SDS011;39398;48.382;9.802;2022-07-29T03:25:28;11.43;;;8.10;;
53521;SDS011;39398;48.382;9.802;2022-07-29T03:26:29;8.07;;;7.25;;
53521;SDS011;39398;48.382;9.802;2022-07-29T03:27:31;7.13;;;6.43;;
53521;SDS011;39398;48.382;9.802;2022-07-29T03:28:32;7.43;;;6.60;;
53521;SDS011;39398;48.382;9.802;2022-07-29T03:29:34;7.72;;;6.75;;
53521;SDS011;39398;48.382;9.802;2022-07-29T03:30:36;7.10;;;6.35;;
53521;SDS011;39398;48.382;9.802;2022-07-29T03:31:38;7.80;;;6.18;;
53521;SDS011;39398;48.382;9.802;2022-07-29T03:32:45;6.60;;;5.75;;
53521;SDS011;39398;48.382;9.802;2022-07-29T03:33:46;7.78;;;5.85;;
53521;SDS011;39398;48.382;9.802;2022-07-29T03:34:48;6.47;;;5.70;;
53521;SDS011;39398;48.382;9.802;2022-07-29T03:35:49;5.72;;;5.22;;
53521;SDS011;39398;48.382;9.802;2022-07-29T03:36:51;7.72;;;6.05;;
53521;SDS011;39398;48.382;9.802;2022-07-29T03:37:52;6.78;;;5.40;;
53521;SDS011;39398;48.382;9.802;2022-07-29T03:38:54;6.32;;;5.65;;
53521;SDS011;39398;48.382;9.802;2022-07-29T03:39:57;7.32;;;5.35;;
53521;SDS011;39398;48.382;9.802;2022-07-29T03:41:00;5.72;;;5.00;;
53521;SDS011;39398;48.382;9.802;2022-07-29T03:42:06;5.70;;;4.47;;
53521;SDS011;39398;48.382;9.802;2022-07-29T03:43:11;6.45;;;4.32;;
53521;SDS011;39398;48.382;9.802;2022-07-29T03:44:16;5.13;;;4.72;;
53521;SDS011;39398;48.382;9.802;2022-07-29T03:45:19;6.30;;;4.63;;
53521;SDS011;39398;48.382;9.802;2022-07-29T03:46:22;6.28;;;4.75;;
53521;SDS011;39398;48.382;9.802;2022-07-29T03:47:27;5.50;;;4.72;;
53521;SDS011;39398;48.382;9.802;2022-07-29T03:48:52;5.93;;;4.00;;
53521;SDS011;39398;48.382;9.802;2022-07-29T03:49:59;6.72;;;4.93;;
53521;SDS011;39398;48.382;9.802;2022-07-29T03:51:03;7.10;;;4.75;;
53521;SDS011;39398;48.382;9.802;2022-07-29T03:52:05;6.03;;;4.57;;
53521;SDS011;39398;48.382;9.802;2022-07-29T03:53:06;5.25;;;4.85;;
53521;SDS011;39398;48.382;9.802;2022-07-29T03:54:09;5.60;;;4.40;;
53521;SDS011;39398;48.382;9.802;2022-07-29T03:55:11;5.72;;;4.75;;
53521;SDS011;39398;48.382;9.802;2022-07-29T03:56:14;5.70;;;4.10;;
53521;SDS011;39398;48.382;9.802;2022-07-29T03:57:18;5.88;;;3.97;;
53521;SDS011;39398;48.382;9.802;2022-07-29T03:58:23;5.47;;;4.43;;
53521;SDS011;39398;48.382;9.802;2022-07-29T03:59:27;6.72;;;4.13;;
53521;SDS011;39398;48.382;9.802;2022-07-29T04:00:30;5.13;;;4.28;;
53521;SDS011;39398;48.382;9.802;2022-07-29T04:01:33;4.47;;;4.07;;
53521;SDS011;39398;48.382;9.802;2022-07-29T04:02:35;4.85;;;4.30;;
53521;SDS011;39398;48.382;9.802;2022-07-29T04:03:38;7.47;;;4.70;;
53521;SDS011;39398;48.382;9.802;2022-07-29T04:04:42;6.57;;;4.28;;
53521;SDS011;39398;48.382;9.802;2022-07-29T04:05:43;5.03;;;4.50;;
53521;SDS011;39398;48.382;9.802;2022-07-29T04:06:45;5.28;;;4.00;;
53521;SDS011;39398;48.382;9.802;2022-07-29T04:07:48;7.05;;;4.20;;
53521;SDS011;39398;48.382;9.802;2022-07-29T04:08:50;4.43;;;4.03;;
53521;SDS011;39398;48.382;9.802;2022-07-29T04:09:51;5.43;;;4.32;;
53521;SDS011;39398;48.382;9.802;2022-07-29T04:10:53;4.35;;;3.88;;
53521;SDS011;39398;48.382;9.802;2022-07-29T04:11:54;5.05;;;3.65;;
53521;SDS011;39398;48.382;9.802;2022-07-29T04:13:02;4.30;;;3.90;;
53521;SDS011;39398;48.382;9.802;2022-07-29T04:14:04;4.20;;;3.80;;
53521;SDS011;39398;48.382;9.802;2022-07-29T04:15:06;5.60;;;4.00;;
53521;SDS011;39398;48.382;9.802;2022-07-29T04:16:08;4.97;;;3.97;;
53521;SDS011;39398;48.382;9.802;2022-07-29T04:17:10;4.30;;;3.70;;
53521;SDS011;39398;48.382;9.802;2022-07-29T04:18:11;6.88;;;4.10;;
53521;SDS011;39398;48.382;9.802;2022-07-29T04:19:13;4.28;;;3.60;;
53521;SDS011;39398;48.382;9.802;2022-07-29T04:20:16;5.68;;;3.90;;
53521;SDS011;39398;48.382;9.802;2022-07-29T04:21:17;6.40;;;4.40;;
53521;SDS011;39398;48.382;9.802;2022-07-29T04:22:19;3.88;;;3.58;;
53521;SDS011;39398;48.382;9.802;2022-07-29T04:23:20;4.57;;;3.97;;
53521;SDS011;39398;48.382;9.802;2022-07-29T04:24:22;3.83;;;3.42;;
53521;SDS011;39398;48.382;9.802;2022-07-29T04:25:23;6.20;;;4.40;;
53521;SDS011;39398;48.382;9.802;2022-07-29T04:26:25;5.40;;;4.10;;
53521;SDS011;39398;48.382;9.802;2022-07-29T04:27:26;4.82;;;4.38;;
53521;SDS011;39398;48.382;9.802;2022-07-29T04:28:28;6.78;;;4.55;;
53521;SDS011;39398;48.382;9.802;2022-07-29T04:29:29;6.28;;;4.55;;
53521;SDS011;39398;48.382;9.802;2022-07-29T04:30:31;5.15;;;4.60;;
53521;SDS011;39398;48.382;9.802;2022-07-29T04:31:33;6.05;;;5.03;;
53521;SDS011;39398;48.382;9.802;2022-07-29T04:32:35;7.22;;;5.40;;
53521;SDS011;39398;48.382;9.802;2022-07-29T04:33:36;5.97;;;5.40;;
53521;SDS011;39398;48.382;9.802;2022-07-29T04:34:38;7.78;;;5.22;;
53521;SDS011;39398;48.382;9.802;2022-07-29T04:35:41;5.82;;;5.30;;
53521;SDS011;39398;48.382;9.802;2022-07-29T04:36:50;6.97;;;5.10;;
53521;SDS011;39398;48.382;9.802;2022-07-29T04:37:52;6.82;;;5.30;;
53521;SDS011;39398;48.382;9.802;2022-07-29T04:38:53;5.60;;;4.97;;
53521;SDS011;39398;48.382;9.802;2022-07-29T04:39:55;7.47;;;5.45;;
53521;SDS011;39398;48.382;9.802;2022-07-29T04:40:56;6.63;;;5.35;;
53521;SDS011;39398;48.382;9.802;2022-07-29T04:41:58;7.40;;;5.30;;
53521;SDS011;39398;48.382;9.802;2022-07-29T04:43:00;7.32;;;5.15;;
53521;SDS011;39398;48.382;9.802;2022-07-29T04:44:05;6.97;;;5.45;;
53521;SDS011;39398;48.382;9.802;2022-07-29T04:45:09;5.88;;;5.28;;
53521;SDS011;39398;48.382;9.802;2022-07-29T04:46:10;10.23;;;5.55;;
53521;SDS011;39398;48.382;9.802;2022-07-29T04:47:12;10.50;;;5.65;;
53521;SDS011;39398;48.382;9.802;2022-07-29T04:48:13;7.20;;;5.13;;
53521;SDS011;39398;48.382;9.802;2022-07-29T04:49:15;8.20;;;4.75;;
53521;SDS011;39398;48.382;9.802;2022-07-29T04:50:17;9.75;;;5.25;;
53521;SDS011;39398;48.382;9.802;2022-07-29T04:51:20;10.63;;;5.40;;
53521;SDS011;39398;48.382;9.802;2022-07-29T04:52:21;9.02;;;5.43;;
53521;SDS011;39398;48.382;9.802;2022-07-29T04:53:23;12.40;;;5.43;;
53521;SDS011;39398;48.382;9.802;2022-07-29T04:54:24;9.57;;;5.70;;
53521;SDS011;39398;48.382;9.802;2022-07-29T04:55:26;12.68;;;5.25;;
53521;SDS011;39398;48.382;9.802;2022-07-29T04:56:28;11.35;;;5.30;;
53521;SDS011;39398;48.382;9.802;2022-07-29T04:57:29;8.60;;;5.30;;
53521;SDS011;39398;48.382;9.802;2022-07-29T04:58:32;8.52;;;5.70;;
53521;SDS011;39398;48.382;9.802;2022-07-29T04:59:35;8.57;;;4.50;;
53521;SDS011;39398;48.382;9.802;2022-07-29T05:00:36;10.48;;;4.43;;
53521;SDS011;39398;48.382;9.802;2022-07-29T05:01:38;10.52;;;4.32;;
53521;SDS011;39398;48.382;9.802;2022-07-29T05:02:39;9.00;;;4.70;;
53521;SDS011;39398;48.382;9.802;2022-07-29T05:03:41;11.02;;;4.72;;
53521;SDS011;39398;48.382;9.802;2022-07-29T05:04:42;11.80;;;6.18;;
53521;SDS011;39398;48.382;9.802;2022-07-29T05:05:44;8.43;;;4.85;;
53521;SDS011;39398;48.382;9.802;2022-07-29T05:06:47;8.85;;;4.68;;
53521;SDS011;39398;48.382;9.802;2022-07-29T05:07:49;5.47;;;4.18;;
53521;SDS011;39398;48.382;9.802;2022-07-29T05:08:50;7.50;;;4.38;;
53521;SDS011;39398;48.382;9.802;2022-07-29T05:09:52;5.35;;;4.47;;
53521;SDS011;39398;48.382;9.802;2022-07-29T05:10:53;7.45;;;4.53;;
53521;SDS011;39398;48.382;9.802;2022-07-29T05:11:55;10.00;;;4.45;;
53521;SDS011;39398;48.382;9.802;2022-07-29T05:12:56;8.70;;;4.75;;
53521;SDS011;39398;48.382;9.802;2022-07-29T05:13:58;5.15;;;3.88;;
53521;SDS011;39398;48.382;9.802;2022-07-29T05:14:59;5.68;;;4.32;;
53521;SDS011;39398;48.382;9.802;2022-07-29T05:16:01;9.63;;;4.82;;
53521;SDS011;39398;48.382;9.802;2022-07-29T05:17:03;5.30;;;3.83;;
53521;SDS011;39398;48.382;9.802;2022-07-29T05:18:05;7.28;;;4.30;;
53521;SDS011;39398;48.382;9.802;2022-07-29T05:19:06;7.25;;;4.07;;
53521;SDS011;39398;48.382;9.802;2022-07-29T05:20:14;5.45;;;3.92;;
53521;SDS011;39398;48.382;9.802;2022-07-29T05:21:15;8.60;;;3.70;;
53521;SDS011;39398;48.382;9.802;2022-07-29T05:22:19;6.13;;;3.88;;
53521;SDS011;39398;48.382;9.802;2022-07-29T05:23:21;5.95;;;4.00;;
53521;SDS011;39398;48.382;9.802;2022-07-29T05:24:22;6.28;;;3.72;;
53521;SDS011;39398;48.382;9.802;2022-07-29T05:25:24;6.88;;;3.97;;
53521;SDS011;39398;48.382;9.802;2022-07-29T05:26:44;7.13;;;4.28;;
53521;SDS011;39398;48.382;9.802;2022-07-29T05:27:45;7.55;;;4.00;;
53521;SDS011;39398;48.382;9.802;2022-07-29T05:28:51;9.45;;;4.47;;
53521;SDS011;39398;48.382;9.802;2022-07-29T05:29:52;5.03;;;3.85;;
53521;SDS011;39398;48.382;9.802;2022-07-29T05:30:54;8.20;;;3.95;;
53521;SDS011;39398;48.382;9.802;2022-07-29T05:31:55;8.40;;;3.90;;
53521;SDS011;39398;48.382;9.802;2022-07-29T05:32:57;8.35;;;4.10;;
53521;SDS011;39398;48.382;9.802;2022-07-29T05:33:58;7.95;;;4.82;;
53521;SDS011;39398;48.382;9.802;2022-07-29T05:35:00;7.10;;;4.18;;
53521;SDS011;39398;48.382;9.802;2022-07-29T05:36:01;6.90;;;3.45;;
53521;SDS011;39398;48.382;9.802;2022-07-29T05:37:03;7.80;;;3.90;;
53521;SDS011;39398;48.382;9.802;2022-07-29T05:38:06;6.53;;;3.38;;
53521;SDS011;39398;48.382;9.802;2022-07-29T05:39:08;6.78;;;3.63;;
53521;SDS011;39398;48.382;9.802;2022-07-29T05:40:09;7.95;;;3.88;;
53521;SDS011;39398;48.382;9.802;2022-07-29T05:41:11;4.47;;;3.63;;
53521;SDS011;39398;48.382;9.802;2022-07-29T05:42:12;5.30;;;3.35;;
53521;SDS011;39398;48.382;9.802;2022-07-29T05:43:14;4.35;;;3.80;;
53521;SDS011;39398;48.382;9.802;2022-07-29T05:44:15;4.72;;;3.58;;
53521;SDS011;39398;48.382;9.802;2022-07-29T05:45:18;4.88;;;3.40;;
53521;SDS011;39398;48.382;9.802;2022-07-29T05:46:19;5.53;;;3.58;;
53521;SDS011;39398;48.382;9.802;2022-07-29T05:47:21;5.78;;;3.72;;
53521;SDS011;39398;48.382;9.802;2022-07-29T05:48:23;7.18;;;3.78;;
53521;SDS011;39398;48.382;9.802;2022-07-29T05:49:24;8.00;;;3.65;;
53521;SDS011;39398;48.382;9.802;2022-07-29T05:50:27;4.68;;;3.50;;
53521;SDS011;39398;48.382;9.802;2022-07-29T05:51:29;5.13;;;3.45;;
53521;SDS011;39398;48.382;9.802;2022-07-29T05:52:30;4.63;;;3.53;;
53521;SDS011;39398;48.382;9.802;2022-07-29T05:53:33;7.13;;;3.53;;
53521;SDS011;39398;48.382;9.802;2022-07-29T05:54:35;5.75;;;3.53;;
53521;SDS011;39398;48.382;9.802;2022-07-29T05:55:36;4.03;;;3.25;;
53521;SDS011;39398;48.382;9.802;2022-07-29T05:56:39;3.25;;;2.90;;
53521;SDS011;39398;48.382;9.802;2022-07-29T05:57:41;5.90;;;3.50;;
53521;SDS011;39398;48.382;9.802;2022-07-29T05:58:42;3.20;;;2.90;;
53521;SDS011;39398;48.382;9.802;2022-07-29T05:59:44;4.35;;;3.42;;
53521;SDS011;39398;48.382;9.802;2022-07-29T06:00:45;5.30;;;3.17;;
53521;SDS011;39398;48.382;9.802;2022-07-29T06:01:47;3.50;;;3.20;;
53521;SDS011;39398;48.382;9.802;2022-07-29T06:02:49;6.53;;;3.58;;
53521;SDS011;39398;48.382;9.802;2022-07-29T06:03:50;3.72;;;3.25;;
53521;SDS011;39398;48.382;9.802;2022-07-29T06:04:52;5.03;;;3.60;;
53521;SDS011;39398;48.382;9.802;2022-07-29T06:05:54;4.72;;;3.20;;
53521;SDS011;39398;48.382;9.802;2022-07-29T06:06:56;5.05;;;3.17;;
53521;SDS011;39398;48.382;9.802;2022-07-29T06:07:57;3.15;;;2.85;;
53521;SDS011;39398;48.382;9.802;2022-07-29T06:09:00;5.57;;;3.17;;
53521;SDS011;39398;48.382;9.802;2022-07-29T06:10:12;4.60;;;3.08;;
53521;SDS011;39398;48.382;9.802;2022-07-29T06:11:14;3.92;;;3.42;;
53521;SDS011;39398;48.382;9.802;2022-07-29T06:12:15;3.95;;;3.63;;
53521;SDS011;39398;48.382;9.802;2022-07-29T06:13:17;12.25;;;11.00;;
53521;SDS011;39398;48.382;9.802;2022-07-29T06:14:18;13.00;;;11.45;;
53521;SDS011;39398;48.382;9.802;2022-07-29T06:15:20;5.85;;;5.30;;
53521;SDS011;39398;48.382;9.802;2022-07-29T06:16:21;5.35;;;4.85;;
53521;SDS011;39398;48.382;9.802;2022-07-29T06:17:30;5.60;;;5.10;;
53521;SDS011;39398;48.382;9.802;2022-07-29T06:18:32;4.47;;;3.65;;